Time;durP1;ratioP1;P1;durP2;ratioP2;P2;SDS_P1;SDS_P2;PMS_P1;PMS_P2;Temp;Humidity;BMP_temperature;BMP_pressure;BME280_temperature;BME280_humidity;BME280_pressure;Samples;Min_cycle;Max_cycle;Signal;HPM_P1;HPM_P2
2023/06/27 00:01:39;;;;;;;10.52;7.53;;;11.70;99.90;;;;;;6211846;23;20063;-76
2023/06/27 00:04:06;;;;;;;7.50;6.22;;;11.70;99.90;;;;;;6211992;23;20016;-76
2023/06/27 00:06:31;;;;;;;8.25;6.40;;;11.70;99.90;;;;;;6211638;23;20016;-76
2023/06/27 00:08:57;;;;;;;6.53;5.78;;;11.70;99.90;;;;;;6211587;23;20520;-76
2023/06/27 00:11:23;;;;;;;11.40;7.57;;;11.60;99.90;;;;;;6211371;23;20024;-76
2023/06/27 00:13:49;;;;;;;6.53;5.78;;;11.70;99.90;;;;;;6212419;23;20249;-76
2023/06/27 00:16:17;;;;;;;7.18;5.90;;;11.60;99.90;;;;;;6212263;23;20020;-76
2023/06/27 00:18:47;;;;;;;9.45;6.90;;;11.60;99.90;;;;;;6212646;23;20464;-76
2023/06/27 00:21:15;;;;;;;7.93;7.13;;;11.60;99.90;;;;;;6211678;23;20009;-76
2023/06/27 00:23:42;;;;;;;9.73;7.25;;;11.60;99.90;;;;;;6212283;23;20373;-76
2023/06/27 00:26:09;;;;;;;8.23;6.38;;;11.50;99.90;;;;;;6212021;23;20091;-76
2023/06/27 00:28:34;;;;;;;8.23;7.03;;;11.60;99.90;;;;;;6211637;23;20043;-76
2023/06/27 00:31:00;;;;;;;10.10;8.35;;;11.50;99.90;;;;;;6211555;23;20035;-77
2023/06/27 00:33:25;;;;;;;7.93;7.03;;;11.50;99.90;;;;;;6211233;23;20048;-76
2023/06/27 00:35:51;;;;;;;8.95;7.35;;;11.50;99.90;;;;;;6211929;23;20143;-76
2023/06/27 00:38:17;;;;;;;8.50;6.90;;;11.50;99.90;;;;;;6212254;23;20020;-77
2023/06/27 00:40:43;;;;;;;9.80;7.32;;;11.50;99.90;;;;;;6211825;23;20013;-76
2023/06/27 00:43:08;;;;;;;10.52;7.85;;;11.40;99.90;;;;;;6211979;23;20453;-76
2023/06/27 00:45:34;;;;;;;8.77;7.80;;;11.40;99.90;;;;;;6212329;23;20013;-76
2023/06/27 00:48:00;;;;;;;10.55;8.45;;;11.40;99.90;;;;;;6211224;23;20012;-76
2023/06/27 00:50:27;;;;;;;9.38;8.48;;;11.40;99.90;;;;;;6211693;23;20040;-76
2023/06/27 00:52:54;;;;;;;9.07;8.18;;;11.30;99.90;;;;;;6211775;23;20012;-76
2023/06/27 00:55:21;;;;;;;9.98;8.10;;;11.20;99.90;;;;;;6212188;23;20086;-76
2023/06/27 00:57:47;;;;;;;10.45;8.90;;;11.20;99.90;;;;;;6212305;23;20345;-76
2023/06/27 01:00:15;;;;;;;11.25;10.07;;;11.20;99.90;;;;;;6211160;23;20009;-76
2023/06/27 01:02:41;;;;;;;10.63;9.35;;;11.20;99.90;;;;;;6211365;23;20009;-76
2023/06/27 01:05:08;;;;;;;9.63;8.75;;;11.20;99.90;;;;;;6212090;23;20028;-76
2023/06/27 01:08:06;;;;;;;12.90;11.60;;;11.20;99.90;;;;;;6211845;23;20035;-76
2023/06/27 01:10:44;;;;;;;11.88;10.73;;;11.20;99.90;;;;;;6194488;23;20013;-76
2023/06/27 01:13:20;;;;;;;11.25;10.15;;;11.20;99.90;;;;;;6211418;23;20115;-76
2023/06/27 01:15:46;;;;;;;11.80;10.60;;;11.20;99.90;;;;;;6212352;23;20023;-76
2023/06/27 01:18:12;;;;;;;12.40;11.18;;;11.20;99.90;;;;;;6213596;23;20134;-76
2023/06/27 01:20:39;;;;;;;12.02;10.80;;;11.20;99.90;;;;;;6213623;23;20009;-76
2023/06/27 01:23:26;;;;;;;12.18;10.98;;;11.20;99.90;;;;;;6213751;23;20338;-76
2023/06/27 01:26:04;;;;;;;11.75;10.65;;;11.20;99.90;;;;;;6213666;23;20080;-76
2023/06/27 01:28:30;;;;;;;13.45;11.45;;;11.20;99.90;;;;;;6214030;23;20096;-76
2023/06/27 01:30:56;;;;;;;13.52;12.23;;;11.20;99.90;;;;;;6212751;23;20063;-76
2023/06/27 01:33:28;;;;;;;13.98;11.75;;;11.20;99.90;;;;;;6213861;23;20013;-76
2023/06/27 01:36:20;;;;;;;13.40;12.00;;;11.20;99.90;;;;;;6213747;23;20087;-76
2023/06/27 01:38:54;;;;;;;13.10;11.80;;;11.20;99.90;;;;;;6211616;23;20015;-76
2023/06/27 01:41:22;;;;;;;13.55;12.20;;;11.20;99.90;;;;;;6213018;23;20040;-76
2023/06/27 01:43:52;;;;;;;16.17;14.60;;;11.20;99.90;;;;;;6213811;23;20092;-76
2023/06/27 01:46:19;;;;;;;15.68;14.07;;;11.20;99.90;;;;;;6213534;23;20055;-76
2023/06/27 01:48:46;;;;;;;15.82;14.30;;;11.20;99.90;;;;;;6212830;23;20035;-76
2023/06/27 01:51:12;;;;;;;18.13;15.82;;;11.20;99.90;;;;;;6213107;23;20334;-76
2023/06/27 01:53:38;;;;;;;17.20;15.00;;;11.20;99.90;;;;;;6213778;23;20035;-76
2023/06/27 01:56:06;;;;;;;14.93;13.45;;;11.20;99.90;;;;;;6188337;23;20441;-76
2023/06/27 01:58:32;;;;;;;19.20;17.00;;;11.20;99.90;;;;;;6213200;23;20125;-76
2023/06/27 02:00:57;;;;;;;17.73;15.18;;;11.20;99.90;;;;;;6213553;23;20012;-76
2023/06/27 02:03:23;;;;;;;18.30;16.42;;;11.20;99.90;;;;;;6213217;23;20020;-76
2023/06/27 02:05:49;;;;;;;17.52;15.73;;;11.20;99.90;;;;;;6213097;23;20463;-76
2023/06/27 02:08:14;;;;;;;18.88;16.92;;;11.20;99.90;;;;;;6213581;23;20020;-76
2023/06/27 02:10:40;;;;;;;17.67;15.98;;;11.20;99.90;;;;;;6213182;23;20021;-76
2023/06/27 02:13:05;;;;;;;19.45;17.42;;;11.20;99.90;;;;;;6213836;23;20162;-76
2023/06/27 02:15:31;;;;;;;18.33;16.42;;;11.20;99.90;;;;;;6213617;23;20016;-76
2023/06/27 02:17:57;;;;;;;18.98;16.58;;;11.20;99.90;;;;;;6211566;23;20459;-76
2023/06/27 02:20:23;;;;;;;16.77;15.15;;;11.20;99.90;;;;;;6213051;23;20040;-76
2023/06/27 02:22:49;;;;;;;18.48;15.57;;;11.20;99.90;;;;;;6213463;23;20009;-76
2023/06/27 02:25:14;;;;;;;20.15;18.25;;;11.20;99.90;;;;;;6213498;23;20642;-76
2023/06/27 02:27:40;;;;;;;19.80;17.90;;;11.20;99.90;;;;;;6187973;23;20016;-76
2023/06/27 02:30:06;;;;;;;18.20;16.20;;;11.20;99.90;;;;;;6213057;23;20052;-76
2023/06/27 02:32:32;;;;;;;19.83;17.83;;;11.20;99.90;;;;;;6211359;23;20013;-76
2023/06/27 02:34:57;;;;;;;19.50;17.55;;;11.30;99.90;;;;;;6212531;23;20024;-76
2023/06/27 02:37:23;;;;;;;19.77;17.83;;;11.20;99.90;;;;;;6213023;23;20418;-76
2023/06/27 02:39:50;;;;;;;23.95;21.25;;;11.20;99.90;;;;;;6212453;23;20044;-76
2023/06/27 02:42:15;;;;;;;19.13;17.25;;;11.20;99.90;;;;;;6212375;23;20461;-76
2023/06/27 02:44:41;;;;;;;21.55;19.33;;;11.20;99.90;;;;;;6212484;23;20020;-76
2023/06/27 02:47:07;;;;;;;20.58;18.42;;;11.20;99.90;;;;;;6212830;23;20012;-76
2023/06/27 02:49:32;;;;;;;21.98;17.52;;;11.20;99.90;;;;;;6212624;23;20009;-76
2023/06/27 02:51:59;;;;;;;21.58;19.38;;;11.30;99.90;;;;;;6213162;23;20380;-76
2023/06/27 02:54:24;;;;;;;20.35;18.02;;;11.20;99.90;;;;;;6212818;23;20013;-76
2023/06/27 02:56:50;;;;;;;20.35;18.23;;;11.20;99.90;;;;;;6212130;23;20070;-76
2023/06/27 02:59:15;;;;;;;19.30;17.30;;;11.30;99.90;;;;;;6212791;23;20019;-76
2023/06/27 03:01:41;;;;;;;21.33;19.13;;;11.20;99.90;;;;;;6213043;23;20016;-76
2023/06/27 03:04:09;;;;;;;21.13;19.05;;;11.20;99.90;;;;;;6213102;23;20396;-76
2023/06/27 03:06:34;;;;;;;20.13;18.42;;;11.30;99.90;;;;;;6187606;23;20013;-76
2023/06/27 03:09:00;;;;;;;21.42;19.30;;;11.20;99.90;;;;;;6186786;23;20009;-76
2023/06/27 03:11:26;;;;;;;19.83;17.73;;;11.30;99.90;;;;;;6213063;23;20420;-76
2023/06/27 03:13:51;;;;;;;22.00;18.58;;;11.30;99.90;;;;;;6212877;23;20009;-76
2023/06/27 03:16:17;;;;;;;20.35;17.98;;;11.30;99.90;;;;;;6212696;23;20044;-76
2023/06/27 03:18:43;;;;;;;20.58;18.38;;;11.30;99.90;;;;;;6212186;23;20009;-76
2023/06/27 03:21:08;;;;;;;20.00;18.10;;;11.30;99.90;;;;;;6212444;23;20012;-76
2023/06/27 03:23:34;;;;;;;21.05;19.05;;;11.30;99.90;;;;;;6212069;23;20063;-76
2023/06/27 03:25:59;;;;;;;24.13;21.73;;;11.30;99.90;;;;;;6212875;23;20008;-76
2023/06/27 03:28:25;;;;;;;24.30;21.80;;;11.30;99.90;;;;;;6212773;23;20016;-76
2023/06/27 03:30:51;;;;;;;28.05;25.25;;;11.40;99.90;;;;;;6212344;23;20507;-76
2023/06/27 03:33:16;;;;;;;23.95;21.45;;;11.40;99.90;;;;;;6212628;23;20353;-76
2023/06/27 03:35:42;;;;;;;23.92;21.10;;;11.40;99.90;;;;;;6211965;23;20012;-76
2023/06/27 03:38:07;;;;;;;21.88;19.73;;;11.50;99.90;;;;;;6211791;23;20016;-76
2023/06/27 03:40:33;;;;;;;23.98;21.60;;;11.50;99.90;;;;;;6212370;23;20004;-76
2023/06/27 03:42:59;;;;;;;22.60;20.50;;;11.50;99.90;;;;;;6212775;23;20024;-76
2023/06/27 03:45:24;;;;;;;23.75;21.27;;;11.60;99.90;;;;;;6212784;23;20449;-76
2023/06/27 03:47:50;;;;;;;24.90;22.40;;;11.60;99.90;;;;;;6210509;23;20465;-76
2023/06/27 03:50:16;;;;;;;24.60;21.52;;;11.60;99.90;;;;;;6211157;23;20084;-76
2023/06/27 03:52:41;;;;;;;22.85;20.55;;;11.70;99.90;;;;;;6187368;23;20019;-76
2023/06/27 03:55:07;;;;;;;23.48;21.10;;;11.80;99.90;;;;;;6212408;23;20009;-76
2023/06/27 03:57:33;;;;;;;25.77;23.30;;;11.80;99.90;;;;;;6212190;23;20096;-76
2023/06/27 03:59:59;;;;;;;29.67;26.60;;;11.80;99.90;;;;;;6210467;23;20055;-76
2023/06/27 04:02:24;;;;;;;25.92;23.20;;;12.00;99.90;;;;;;6212046;23;20605;-76
2023/06/27 04:04:50;;;;;;;25.88;23.27;;;12.00;99.90;;;;;;6212450;23;20472;-76
2023/06/27 04:07:15;;;;;;;25.55;22.88;;;12.10;99.90;;;;;;6212099;23;20094;-76
2023/06/27 04:09:41;;;;;;;26.13;23.52;;;12.10;99.90;;;;;;6186166;23;20024;-76
2023/06/27 04:12:08;;;;;;;26.30;23.65;;;12.20;99.90;;;;;;6211499;23;20015;-76
2023/06/27 04:14:34;;;;;;;24.90;22.55;;;12.30;99.90;;;;;;6211628;23;20009;-76
2023/06/27 04:17:00;;;;;;;24.85;21.35;;;12.40;99.90;;;;;;6212021;23;20012;-76
2023/06/27 04:19:26;;;;;;;23.20;20.85;;;12.40;99.90;;;;;;6211978;23;20004;-76
2023/06/27 04:21:51;;;;;;;26.77;24.08;;;12.50;99.90;;;;;;6212517;23;20396;-76
2023/06/27 04:24:17;;;;;;;24.48;21.92;;;12.60;99.90;;;;;;6211964;23;20016;-76
2023/06/27 04:26:42;;;;;;;22.63;20.23;;;12.70;99.90;;;;;;6210402;23;20461;-76
2023/06/27 04:29:08;;;;;;;22.63;20.00;;;12.90;99.90;;;;;;6210793;23;20095;-76
2023/06/27 04:31:34;;;;;;;23.52;21.27;;;13.20;99.90;;;;;;6212291;23;20407;-76
2023/06/27 04:34:00;;;;;;;20.13;18.02;;;13.50;99.90;;;;;;6212285;23;20059;-76
2023/06/27 04:36:27;;;;;;;18.50;16.70;;;14.10;99.90;;;;;;6212086;23;20083;-76
2023/06/27 04:38:52;;;;;;;17.55;15.82;;;14.70;99.90;;;;;;6210645;23;20009;-76
2023/06/27 04:41:18;;;;;;;16.48;14.65;;;15.30;99.90;;;;;;6211783;23;20009;-76
2023/06/27 04:43:44;;;;;;;15.68;13.93;;;16.00;99.90;;;;;;6212232;23;20445;-76
2023/06/27 04:46:10;;;;;;;15.38;13.77;;;16.60;99.90;;;;;;6209724;23;20039;-76
2023/06/27 04:48:35;;;;;;;13.65;11.68;;;17.20;99.90;;;;;;6210126;23;20388;-76
2023/06/27 04:51:01;;;;;;;13.13;11.65;;;17.70;99.90;;;;;;6213307;23;20013;-74
2023/06/27 04:53:27;;;;;;;14.48;11.50;;;18.20;99.90;;;;;;6213235;23;20021;-75
2023/06/27 04:55:53;;;;;;;12.68;10.57;;;18.70;99.90;;;;;;6213332;23;20298;-74
2023/06/27 04:58:19;;;;;;;11.82;10.55;;;19.20;99.90;;;;;;6213554;23;20497;-74
2023/06/27 05:00:51;;;;;;;11.85;10.00;;;19.60;99.90;;;;;;6213652;23;20036;-75
2023/06/27 05:03:18;;;;;;;12.18;9.75;;;20.00;99.90;;;;;;6212081;23;20384;-76
2023/06/27 05:05:44;;;;;;;13.25;9.35;;;20.50;99.90;;;;;;6211506;23;20008;-75
2023/06/27 05:08:10;;;;;;;10.32;8.77;;;20.90;99.90;;;;;;6213116;23;20341;-74
2023/06/27 05:10:36;;;;;;;13.90;9.30;;;21.30;99.90;;;;;;6213547;23;20500;-74
2023/06/27 05:13:02;;;;;;;11.73;8.80;;;21.70;99.90;;;;;;6213548;23;20039;-74
2023/06/27 05:15:28;;;;;;;10.52;8.98;;;22.10;99.90;;;;;;6214030;23;20012;-74
2023/06/27 05:18:15;;;;;;;11.27;9.30;;;22.40;99.90;;;;;;6213813;23;20020;-74
2023/06/27 05:20:44;;;;;;;10.20;7.78;;;22.70;99.90;;;;;;6214025;23;20330;-74
2023/06/27 05:23:10;;;;;;;10.75;7.90;;;23.10;99.90;;;;;;6213560;23;20040;-74
2023/06/27 05:25:36;;;;;;;9.48;7.13;;;23.40;99.90;;;;;;6213551;23;20464;-74
2023/06/27 05:28:02;;;;;;;8.48;7.22;;;23.60;99.90;;;;;;6213707;23;20445;-74
2023/06/27 05:30:28;;;;;;;11.05;6.97;;;23.90;99.90;;;;;;6213693;23;20019;-74
2023/06/27 05:32:55;;;;;;;19.33;11.27;;;24.10;99.90;;;;;;6213999;23;20019;-74
2023/06/27 05:35:21;;;;;;;11.07;7.75;;;24.30;99.90;;;;;;6212519;23;20026;-74
2023/06/27 05:37:47;;;;;;;8.73;6.40;;;24.50;99.90;;;;;;6213518;23;20012;-74
2023/06/27 05:40:12;;;;;;;7.47;6.05;;;24.70;99.90;;;;;;6187073;23;20019;-74
2023/06/27 05:42:39;;;;;;;9.85;5.97;;;24.90;99.90;;;;;;6213904;23;20092;-74
2023/06/27 05:45:05;;;;;;;9.18;6.25;;;25.10;99.00;;;;;;6213254;23;20008;-75
2023/06/27 05:47:30;;;;;;;10.38;5.88;;;25.30;96.60;;;;;;6213459;23;20091;-75
2023/06/27 05:49:56;;;;;;;7.47;5.10;;;25.40;91.20;;;;;;6212741;23;20040;-75
2023/06/27 05:52:22;;;;;;;7.65;4.70;;;25.50;94.80;;;;;;6213649;23;20016;-75
2023/06/27 05:54:48;;;;;;;6.43;4.90;;;25.50;91.30;;;;;;6213586;23;20012;-75
2023/06/27 05:57:14;;;;;;;8.55;5.10;;;25.60;92.70;;;;;;6188157;23;20009;-75
2023/06/27 05:59:40;;;;;;;6.47;3.83;;;25.70;91.20;;;;;;6212785;23;20515;-75
2023/06/27 06:02:05;;;;;;;8.93;3.75;;;25.50;91.70;;;;;;6213120;23;20009;-75
2023/06/27 06:04:31;;;;;;;5.07;3.33;;;25.00;92.30;;;;;;6213255;23;20333;-75
2023/06/27 06:06:58;;;;;;;5.07;2.97;;;24.40;97.60;;;;;;6213274;23;20020;-75
2023/06/27 06:09:25;;;;;;;5.05;3.08;;;23.80;99.90;;;;;;6213606;23;20036;-75
2023/06/27 06:11:50;;;;;;;4.45;3.03;;;23.20;99.90;;;;;;6213201;23;20059;-75
2023/06/27 06:14:16;;;;;;;5.88;2.65;;;22.80;99.90;;;;;;6187451;23;20032;-75
2023/06/27 06:16:42;;;;;;;4.10;2.70;;;22.40;99.90;;;;;;6213050;23;20008;-75
2023/06/27 06:19:07;;;;;;;5.18;2.40;;;22.20;99.90;;;;;;6213132;23;20012;-75
2023/06/27 06:21:33;;;;;;;5.65;2.63;;;22.00;99.90;;;;;;6213584;23;20127;-75
2023/06/27 06:23:59;;;;;;;5.40;2.40;;;21.90;99.90;;;;;;6213342;23;20017;-75
2023/06/27 06:26:25;;;;;;;7.90;2.60;;;21.90;99.90;;;;;;6213237;23;20015;-75
2023/06/27 06:28:50;;;;;;;6.60;2.15;;;21.90;99.90;;;;;;6212770;23;20453;-75
2023/06/27 06:31:16;;;;;;;4.07;1.58;;;21.90;99.90;;;;;;6213385;23;20092;-75
2023/06/27 06:33:46;;;;;;;4.50;1.38;;;21.90;99.90;;;;;;6188274;23;20039;-75
2023/06/27 06:36:12;;;;;;;3.15;1.40;;;22.00;99.90;;;;;;6213054;23;20008;-75
2023/06/27 06:38:39;;;;;;;4.43;1.40;;;22.00;99.90;;;;;;6213231;23;20093;-75
2023/06/27 06:41:04;;;;;;;4.90;1.48;;;22.00;99.90;;;;;;6213378;23;20013;-75
2023/06/27 06:43:30;;;;;;;3.35;1.20;;;22.00;99.90;;;;;;6212831;23;20012;-75
2023/06/27 06:45:56;;;;;;;5.47;1.90;;;22.00;99.90;;;;;;6211865;23;20492;-75
2023/06/27 06:48:23;;;;;;;4.45;1.30;;;21.90;99.90;;;;;;6211222;23;20382;-75
2023/06/27 06:50:50;;;;;;;6.43;1.50;;;21.90;99.90;;;;;;6212662;23;20016;-74
2023/06/27 06:53:16;;;;;;;4.20;1.30;;;21.80;99.90;;;;;;6210462;23;20496;-74
2023/06/27 06:55:42;;;;;;;2.72;1.10;;;21.80;99.90;;;;;;6212385;23;20009;-74
2023/06/27 07:01:22;;;;;;;4.53;1.40;;;21.80;99.90;;;;;;6267621;22;20027;-80
2023/06/27 07:04:28;;;;;;;4.22;1.10;;;21.70;99.90;;;;;;6255452;22;20037;-79
2023/06/27 07:22:48;;;;;;;;;;;;;;;;;;;;;
2023/06/27 07:26:15;;;;;;;4.10;1.13;;;21.50;98.20;;;;;;6020869;23;20117;-82
2023/06/27 07:29:08;;;;;;;5.10;1.40;;;21.50;99.90;;;;;;6096539;23;20023;-84
2023/06/27 07:31:34;;;;;;;5.00;1.38;;;21.60;99.90;;;;;;6193229;23;20051;-86
2023/06/27 07:33:59;;;;;;;5.13;1.40;;;21.70;99.90;;;;;;6192333;23;20098;-84
2023/06/27 07:36:25;;;;;;;5.25;1.38;;;21.70;98.70;;;;;;6217424;23;20039;-85
2023/06/27 07:38:51;;;;;;;5.30;1.70;;;21.70;99.90;;;;;;6183403;23;20013;-85
2023/06/27 07:41:16;;;;;;;4.10;1.23;;;21.70;99.90;;;;;;6187347;23;20448;-85
2023/06/27 07:43:42;;;;;;;3.88;1.23;;;21.80;99.90;;;;;;6162021;23;20017;-86
2023/06/27 07:46:07;;;;;;;3.55;1.38;;;21.80;99.90;;;;;;6162117;23;20016;-84
2023/06/27 07:48:33;;;;;;;6.88;1.45;;;21.90;99.90;;;;;;6187460;23;20019;-85
2023/06/27 07:50:59;;;;;;;4.63;1.25;;;22.00;99.90;;;;;;6162020;23;20023;-85
2023/06/27 07:53:24;;;;;;;6.45;1.25;;;22.20;99.90;;;;;;6187710;23;20036;-85
2023/06/27 07:55:50;;;;;;;5.15;1.48;;;22.40;99.90;;;;;;6188162;23;20011;-85
2023/06/27 07:58:15;;;;;;;4.30;1.30;;;22.60;99.80;;;;;;6163401;23;20005;-86
2023/06/27 08:00:41;;;;;;;3.63;1.40;;;23.00;95.30;;;;;;6163021;23;20035;-86
2023/06/27 08:03:06;;;;;;;3.70;1.20;;;23.20;93.60;;;;;;6161789;23;20022;-85
2023/06/27 08:05:34;;;;;;;4.57;1.20;;;23.50;90.00;;;;;;6162438;23;20005;-85
2023/06/27 08:08:01;;;;;;;4.97;1.27;;;23.80;84.50;;;;;;6187575;23;20117;-84
2023/06/27 08:10:28;;;;;;;3.38;0.90;;;24.00;82.90;;;;;;6187410;23;20484;-81
2023/06/27 08:12:54;;;;;;;3.17;1.25;;;24.20;72.20;;;;;;6187782;23;20465;-82
2023/06/27 08:15:19;;;;;;;4.03;1.10;;;24.30;70.20;;;;;;6186972;23;20061;-85
2023/06/27 08:17:45;;;;;;;4.25;1.40;;;24.50;70.20;;;;;;6163100;23;20040;-83
2023/06/27 08:20:11;;;;;;;3.78;1.27;;;24.50;66.80;;;;;;6162680;23;20010;-85
2023/06/27 08:22:37;;;;;;;4.22;1.20;;;24.20;66.10;;;;;;6187594;23;20012;-87
2023/06/27 08:25:02;;;;;;;4.50;1.25;;;24.10;69.00;;;;;;6187896;23;20479;-85
2023/06/27 08:27:28;;;;;;;3.70;1.20;;;24.10;70.50;;;;;;6162627;23;20074;-84
2023/06/27 08:29:54;;;;;;;4.82;1.17;;;24.30;69.70;;;;;;6187500;23;20100;-85
2023/06/27 08:32:19;;;;;;;6.78;1.20;;;24.80;70.00;;;;;;6162705;23;20463;-85
2023/06/27 08:34:45;;;;;;;4.60;1.20;;;25.30;69.30;;;;;;6162781;23;20008;-85
2023/06/27 08:37:11;;;;;;;3.65;1.10;;;25.40;67.80;;;;;;6187349;23;20051;-85
2023/06/27 08:39:37;;;;;;;4.05;1.10;;;25.70;67.00;;;;;;6162749;23;20095;-85
2023/06/27 08:42:03;;;;;;;4.32;1.15;;;25.80;64.80;;;;;;6187734;23;20102;-85
2023/06/27 08:44:28;;;;;;;5.43;1.20;;;25.60;63.60;;;;;;6187764;23;20047;-85
2023/06/27 08:47:00;;;;;;;5.40;1.25;;;25.40;63.10;;;;;;6162499;23;20017;-84
2023/06/27 08:49:42;;;;;;;4.38;1.10;;;25.10;64.50;;;;;;5151048;27;20365;-85
2023/06/27 08:52:12;;;;;;;4.15;1.27;;;24.90;65.60;;;;;;5115899;27;20438;-84
2023/06/27 08:54:43;;;;;;;4.90;1.38;;;24.90;65.10;;;;;;5132671;27;20066;-84
2023/06/27 08:57:11;;;;;;;3.35;1.10;;;24.70;64.20;;;;;;5115203;27;20041;-84
2023/06/27 08:59:38;;;;;;;4.43;1.08;;;24.60;64.70;;;;;;5115340;27;20061;-83
2023/06/27 09:02:05;;;;;;;4.55;1.30;;;24.40;63.00;;;;;;5129951;22;20070;-76
2023/06/27 09:04:35;;;;;;;4.78;1.48;;;24.30;64.90;;;;;;5085554;28;20044;-76
2023/06/27 09:07:03;;;;;;;3.28;1.23;;;24.40;65.00;;;;;;5087472;28;20036;-76
2023/06/27 09:09:28;;;;;;;4.45;1.40;;;24.50;65.10;;;;;;5091110;28;20082;-76
2023/06/27 09:11:54;;;;;;;3.90;1.10;;;24.50;63.60;;;;;;5082071;28;20405;-76
2023/06/27 09:14:20;;;;;;;3.45;1.00;;;24.50;62.40;;;;;;5079088;28;20048;-76
2023/06/27 09:16:46;;;;;;;2.72;1.08;;;24.40;62.90;;;;;;5070460;28;20032;-76
2023/06/27 09:19:12;;;;;;;4.68;1.38;;;24.30;63.70;;;;;;5070687;28;21453;-76
2023/06/27 09:21:39;;;;;;;4.55;1.38;;;24.30;64.10;;;;;;5076584;28;20039;-76
2023/06/27 09:24:05;;;;;;;7.80;1.40;;;24.20;63.90;;;;;;5082712;28;20432;-76
2023/06/27 09:26:31;;;;;;;19.10;1.80;;;24.40;63.00;;;;;;5090557;28;20173;-76
2023/06/27 09:28:59;;;;;;;5.25;1.23;;;24.60;62.20;;;;;;5065008;28;20119;-76
2023/06/27 09:31:28;;;;;;;3.55;1.00;;;24.70;62.70;;;;;;5074635;28;20386;-76
2023/06/27 09:34:08;;;;;;;6.45;1.25;;;24.90;63.30;;;;;;5068041;28;20497;-76
2023/06/27 09:36:39;;;;;;;6.05;1.23;;;25.00;62.90;;;;;;5083495;28;20036;-76
2023/06/27 09:39:09;;;;;;;7.07;1.70;;;24.90;62.70;;;;;;5090639;28;20044;-76
2023/06/27 09:41:48;;;;;;;5.70;1.23;;;25.00;64.00;;;;;;5090452;28;20032;-76
2023/06/27 09:44:22;;;;;;;7.57;1.30;;;25.20;63.90;;;;;;5090435;28;20044;-76
2023/06/27 09:46:49;;;;;;;7.20;1.55;;;25.30;60.60;;;;;;5082683;28;20056;-76
2023/06/27 09:49:16;;;;;;;9.23;1.35;;;25.20;62.50;;;;;;5078413;28;20119;-76
2023/06/27 09:51:46;;;;;;;7.65;1.40;;;25.30;62.50;;;;;;5069990;28;20121;-76
2023/06/27 09:54:12;;;;;;;4.53;1.30;;;25.50;61.80;;;;;;5070206;28;20036;-76
2023/06/27 09:56:38;;;;;;;26.40;2.30;;;25.70;62.70;;;;;;5069635;28;20043;-76
2023/06/27 09:59:10;;;;;;;5.72;1.23;;;26.10;62.60;;;;;;5067732;28;20444;-76
2023/06/27 10:01:37;;;;;;;42.00;2.80;;;26.50;61.00;;;;;;5063295;28;20048;-76
2023/06/27 10:04:04;;;;;;;4.28;1.00;;;26.80;59.70;;;;;;5064815;28;20123;-76
2023/06/27 10:06:31;;;;;;;3.92;1.30;;;27.00;59.10;;;;;;5056405;28;20129;-77
2023/06/27 10:08:57;;;;;;;4.45;1.10;;;27.50;59.40;;;;;;5056478;28;20498;-77
2023/06/27 10:11:24;;;;;;;3.95;0.90;;;27.70;56.60;;;;;;5062241;28;20032;-76
2023/06/27 10:13:51;;;;;;;32.20;2.95;;;27.70;57.00;;;;;;5064485;28;20144;-77
2023/06/27 10:16:17;;;;;;;8.45;1.27;;;27.60;56.90;;;;;;5056328;28;20044;-76
2023/06/27 10:18:44;;;;;;;4.85;1.67;;;27.30;56.20;;;;;;5056261;28;20048;-76
2023/06/27 10:21:11;;;;;;;10.75;1.40;;;27.00;57.40;;;;;;5056201;28;20036;-76
2023/06/27 10:23:39;;;;;;;4.95;1.38;;;26.70;55.50;;;;;;5055968;28;20041;-75
2023/06/27 10:26:05;;;;;;;23.95;2.40;;;26.50;55.70;;;;;;5061687;28;20111;-76
2023/06/27 10:28:31;;;;;;;16.90;1.85;;;26.90;57.80;;;;;;5064227;28;20564;-76
2023/06/27 10:30:57;;;;;;;5.13;1.08;;;27.40;57.30;;;;;;5076230;28;20501;-76
2023/06/27 10:33:31;;;;;;;3.30;0.90;;;27.50;57.60;;;;;;5059306;28;20032;-76
2023/06/27 10:36:08;;;;;;;7.80;1.00;;;27.10;56.50;;;;;;5059097;28;20032;-76
2023/06/27 10:38:35;;;;;;;4.35;1.00;;;26.70;57.40;;;;;;5073054;28;20048;-77
2023/06/27 10:41:05;;;;;;;4.63;1.20;;;26.30;57.90;;;;;;5066975;28;20078;-75
2023/06/27 10:43:49;;;;;;;5.22;1.20;;;26.20;58.60;;;;;;5066132;28;20048;-76
2023/06/27 10:46:27;;;;;;;4.97;1.25;;;26.70;59.10;;;;;;5057315;28;20048;-76
2023/06/27 10:49:04;;;;;;;3.88;0.98;;;27.50;58.80;;;;;;5067514;28;20036;-77
2023/06/27 10:51:41;;;;;;;6.80;1.10;;;27.80;55.80;;;;;;5058828;28;20036;-76
2023/06/27 10:54:07;;;;;;;2.88;1.00;;;27.80;54.70;;;;;;5066132;28;20042;-76
2023/06/27 10:56:37;;;;;;;4.30;1.02;;;27.60;56.10;;;;;;5058464;28;20122;-76
2023/06/27 10:59:19;;;;;;;4.85;1.10;;;27.40;55.90;;;;;;5067114;28;20497;-77
2023/06/27 11:02:07;;;;;;;3.88;1.10;;;27.40;56.10;;;;;;5069312;28;20044;-77
2023/06/27 11:04:42;;;;;;;2.35;0.80;;;27.30;57.50;;;;;;5067055;28;20050;-78
2023/06/27 11:07:10;;;;;;;2.90;0.85;;;27.30;56.00;;;;;;5070524;28;20490;-75
2023/06/27 11:09:36;;;;;;;2.90;1.20;;;27.30;56.20;;;;;;5068634;28;20079;-75
2023/06/27 11:12:14;;;;;;;4.07;1.00;;;27.20;55.60;;;;;;5062351;28;20064;-75
2023/06/27 11:14:46;;;;;;;4.13;1.00;;;27.30;55.70;;;;;;5055019;28;20036;-75
2023/06/27 11:17:12;;;;;;;3.72;1.10;;;27.40;55.40;;;;;;5060238;28;20028;-74
2023/06/27 11:19:39;;;;;;;3.63;0.90;;;27.40;56.00;;;;;;5063006;28;20068;-75
2023/06/27 11:22:06;;;;;;;3.90;1.10;;;27.50;55.10;;;;;;5061364;28;20040;-75
2023/06/27 11:24:32;;;;;;;5.32;1.27;;;27.50;55.60;;;;;;5073603;28;20334;-76
2023/06/27 11:27:00;;;;;;;4.68;1.45;;;27.60;55.80;;;;;;5070191;28;20119;-75
2023/06/27 11:29:26;;;;;;;5.32;1.00;;;27.50;55.20;;;;;;5062962;28;20044;-74
2023/06/27 11:31:53;;;;;;;4.53;1.33;;;27.50;55.40;;;;;;5065837;28;20054;-75
2023/06/27 11:34:19;;;;;;;5.13;1.10;;;27.60;55.70;;;;;;5066389;28;20078;-75
2023/06/27 11:36:45;;;;;;;3.67;1.02;;;27.70;57.00;;;;;;5049686;28;20119;-75
2023/06/27 11:39:12;;;;;;;3.20;1.00;;;27.70;54.80;;;;;;5070423;28;20051;-75
2023/06/27 11:41:42;;;;;;;4.18;1.15;;;27.70;52.60;;;;;;5063564;28;20051;-76
2023/06/27 11:44:09;;;;;;;5.57;1.05;;;27.50;54.60;;;;;;5062650;28;20074;-77
2023/06/27 11:46:45;;;;;;;2.55;0.93;;;27.60;55.40;;;;;;5069543;28;20044;-77
2023/06/27 11:49:11;;;;;;;3.40;1.10;;;27.70;55.40;;;;;;5064421;28;20120;-76
2023/06/27 11:51:40;;;;;;;3.67;1.30;;;27.80;55.20;;;;;;5054731;28;20152;-76
2023/06/27 11:54:09;;;;;;;4.18;1.20;;;27.80;53.90;;;;;;5054585;28;20040;-76
2023/06/27 11:56:40;;;;;;;3.40;1.00;;;27.90;53.60;;;;;;5054270;28;20036;-76
2023/06/27 11:59:06;;;;;;;4.47;1.35;;;28.20;54.80;;;;;;5054397;28;20044;-76
2023/06/27 12:01:39;;;;;;;3.38;0.82;;;28.60;53.60;;;;;;5063917;28;20104;-77
2023/06/27 12:04:12;;;;;;;5.40;1.10;;;28.80;53.50;;;;;;5063278;28;20039;-77
2023/06/27 12:06:37;;;;;;;;;;;29.20;52.20;;;;;;5065285;28;20037;-77
2023/06/27 12:09:07;;;;;;;2.88;1.13;;;29.20;51.40;;;;;;5054210;28;20401;-77
2023/06/27 12:11:34;;;;;;;3.60;1.02;;;29.20;51.20;;;;;;5061667;28;20478;-76
2023/06/27 12:14:09;;;;;;;4.22;1.10;;;29.30;51.40;;;;;;5063415;28;20040;-77
2023/06/27 12:16:35;;;;;;;4.90;1.30;;;29.40;51.80;;;;;;5057988;28;20364;-76
2023/06/27 12:19:10;;;;;;;3.35;1.10;;;29.40;51.40;;;;;;5062286;28;20086;-77
2023/06/27 12:21:36;;;;;;;3.40;1.00;;;29.40;50.10;;;;;;5054096;28;20087;-77
2023/06/27 12:24:03;;;;;;;3.35;1.23;;;29.20;50.30;;;;;;5064871;28;20072;-77
2023/06/27 12:26:29;;;;;;;4.47;1.10;;;29.00;50.20;;;;;;5061778;28;20075;-76
2023/06/27 12:29:02;;;;;;;1.88;0.70;;;28.90;50.30;;;;;;5053867;28;20048;-77
2023/06/27 12:31:27;;;;;;;5.90;1.10;;;28.80;50.70;;;;;;5052039;28;20578;-77
2023/06/27 12:33:53;;;;;;;3.60;1.02;;;28.70;51.80;;;;;;5069650;28;20428;-76
2023/06/27 12:36:21;;;;;;;3.53;0.95;;;28.60;50.60;;;;;;5063236;28;20055;-77
2023/06/27 12:38:47;;;;;;;4.00;1.20;;;28.50;51.60;;;;;;5051684;28;20039;-77
2023/06/27 12:41:13;;;;;;;3.22;1.00;;;28.50;50.80;;;;;;5057096;28;20122;-77
2023/06/27 12:43:39;;;;;;;2.88;0.88;;;28.40;51.10;;;;;;5071257;28;20119;-77
2023/06/27 12:46:05;;;;;;;3.97;1.10;;;28.50;52.60;;;;;;5065558;28;20096;-76
2023/06/27 12:48:32;;;;;;;3.05;1.05;;;28.60;52.00;;;;;;5064690;28;20044;-76
2023/06/27 12:50:58;;;;;;;3.67;1.08;;;28.70;50.30;;;;;;5071004;28;20046;-76
2023/06/27 12:53:24;;;;;;;3.35;1.13;;;28.80;50.50;;;;;;5051924;28;20040;-76
2023/06/27 12:55:49;;;;;;;4.13;1.10;;;29.10;50.70;;;;;;5043724;28;20041;-76
2023/06/27 12:58:15;;;;;;;3.13;1.17;;;29.10;49.90;;;;;;5050348;28;20032;-77
2023/06/27 13:00:42;;;;;;;5.28;1.35;;;29.10;50.20;;;;;;5069514;28;20048;-77
2023/06/27 13:03:07;;;;;;;3.67;1.23;;;29.10;50.70;;;;;;5038940;28;20049;-76